Neptune Okeanis — 9HZW7 — position and weather

sailwx.info

Track history (hours):
 
Tides and Currents Weather Stations Pressure Air Temp Water Temp Dewpoint Dewpoint Depression Visibility Wind Speed Wind Dir Waves Ship Positions

Neptune Okeanis

Last reported at 2018-Aug-16 20:24 UTC. Time now 2018-Aug-17 11:42 UTC.
Position N 37°32' E 023°54'.

Length 163 m; draft 5.9 m.

Type: Cargo ship. MMSI: 215912000.

Date/timePositionNaut miles runAvg speedWind from/ knotsBaromVisibWave heightAir tempDewpointWater temp
2018-Aug-16 20:24N 37°32' E 023°54'716.5
2018-Aug-16 20:00N 37°36' E 023°48'816.3
2018-Aug-16 19:31N 37°42' E 023°41'816.5
2018-Aug-16 19:00N 37°50' E 023°37'713.9
2018-Aug-16 18:30N 37°57' E 023°36'1 2.1
2018-Aug-16 17:59N 37°58' E 023°37'0 0.0
2018-Aug-16 17:30N 37°58' E 023°37'0 0.0
2018-Aug-16 17:00N 37°58' E 023°37'0 0.0
2018-Aug-16 16:30N 37°58' E 023°37'0 0.0
2018-Aug-16 16:00N 37°58' E 023°37'0 0.0
2018-Aug-16 15:25N 37°58' E 023°37'0 0.0
2018-Aug-16 14:58N 37°58' E 023°37'0 0.0
2018-Aug-16 14:29N 37°58' E 023°37'0 0.0
2018-Aug-16 13:59N 37°58' E 023°37'0 0.0
2018-Aug-16 13:29N 37°58' E 023°37'0 0.0
2018-Aug-16 12:57N 37°58' E 023°37'0 0.0
2018-Aug-16 12:30N 37°58' E 023°37'0 0.0
2018-Aug-16 12:00N 37°58' E 023°37'0 0.0
2018-Aug-16 11:30N 37°58' E 023°37'0 0.0
2018-Aug-16 10:58N 37°58' E 023°37'0 0.0
2018-Aug-16 10:28N 37°58' E 023°37'0 0.0
2018-Aug-16 09:59N 37°58' E 023°37'0 0.0
2018-Aug-16 09:29N 37°58' E 023°37'0 0.0
2018-Aug-16 08:58N 37°58' E 023°37'0 0.0
2018-Aug-16 08:29N 37°58' E 023°37'0 0.0
2018-Aug-16 07:59N 37°58' E 023°37'0 0.0
2018-Aug-16 07:29N 37°58' E 023°36'0 0.5
2018-Aug-16 07:00N 37°57' E 023°36'3 3.3
2018-Aug-16 06:06N 37°54' E 023°36'0 0.1
2018-Aug-16 06:00N 37°54' E 023°36'0 0.8
2018-Aug-16 05:30N 37°55' E 023°35'2 4.1
2018-Aug-16 05:01N 37°53' E 023°34'2 3.3
2018-Aug-16 04:28N 37°52' E 023°33'0 0.0
2018-Aug-16 03:59N 37°52' E 023°33'0 0.1
2018-Aug-16 03:29N 37°52' E 023°33'0 0.0
2018-Aug-16 02:59N 37°52' E 023°33'0 0.1
2018-Aug-16 02:30N 37°52' E 023°33'0 0.1
2018-Aug-16 02:00N 37°52' E 023°33'0 0.1
2018-Aug-16 01:30N 37°52' E 023°33'0 0.0
2018-Aug-16 00:58N 37°52' E 023°33'0 0.0
2018-Aug-16 00:28N 37°52' E 023°33'0 0.0
2018-Aug-15 23:58N 37°52' E 023°33'0 0.0
2018-Aug-15 23:29N 37°52' E 023°33'0 0.0
2018-Aug-15 22:59N 37°52' E 023°33'0 0.0
2018-Aug-15 22:29N 37°52' E 023°33'0 0.0
2018-Aug-15 21:57N 37°52' E 023°33'0 0.0
2018-Aug-15 21:30N 37°52' E 023°33'0 0.0
2018-Aug-15 20:58N 37°52' E 023°33'0 0.1
2018-Aug-15 20:28N 37°52' E 023°33'0 0.0
2018-Aug-15 19:58N 37°52' E 023°33'0 0.0
2018-Aug-15 19:26N 37°52' E 023°33'0 0.0
2018-Aug-15 18:59N 37°52' E 023°33'0 0.0
2018-Aug-15 18:29N 37°52' E 023°33'0 0.0
2018-Aug-15 17:59N 37°52' E 023°33'0 0.1
2018-Aug-15 17:30N 37°52' E 023°33'0 0.0
2018-Aug-15 17:00N 37°52' E 023°33'0 0.1
2018-Aug-15 16:30N 37°52' E 023°33'0 0.0
2018-Aug-15 15:58N 37°52' E 023°33'0 0.1
2018-Aug-15 15:28N 37°52' E 023°33'0 0.1
2018-Aug-15 14:59N 37°52' E 023°33'0 0.1
2018-Aug-15 14:29N 37°52' E 023°33'0 0.2
2018-Aug-15 14:00N 37°52' E 023°33'3 6.4
2018-Aug-15 13:30N 37°51' E 023°37'510.4
2018-Aug-15 13:00N 37°47' E 023°41'611.1
2018-Aug-15 12:30N 37°42' E 023°44'  
2018-Aug-10 10:57N 36°39' E 014°39'716.2
2018-Aug-10 10:30N 36°41' E 014°30'816.2
2018-Aug-10 10:00N 36°45' E 014°21'1016.5
2018-Aug-10 09:23N 36°49' E 014°09'616.4
2018-Aug-10 09:00N 36°52' E 014°02'816.2
2018-Aug-10 08:30N 36°55' E 013°53'59616.2
2018-Aug-08 19:40N 41°12' E 002°21'316.0
2018-Aug-08 19:30N 41°14' E 002°18'714.5
2018-Aug-08 19:01N 41°18' E 002°10'2 4.9
2018-Aug-08 18:31N 41°20' E 002°09'0 0.3
2018-Aug-08 18:00N 41°20' E 002°09'0 0.0
2018-Aug-08 17:30N 41°20' E 002°09'0 0.0
2018-Aug-08 16:49N 41°20' E 002°09'0 0.0
2018-Aug-08 16:28N 41°20' E 002°09'0 0.0
2018-Aug-08 15:58N 41°20' E 002°09'0 0.0
2018-Aug-08 15:29N 41°20' E 002°09'0 0.0
2018-Aug-08 14:59N 41°20' E 002°09'0 0.0
2018-Aug-08 14:29N 41°20' E 002°09'0 0.0
2018-Aug-08 14:00N 41°20' E 002°09'0 0.0
2018-Aug-08 13:30N 41°20' E 002°09'0 0.0
2018-Aug-08 13:00N 41°20' E 002°09'0 0.0
2018-Aug-08 12:28N 41°20' E 002°09'0 0.0
2018-Aug-08 11:58N 41°20' E 002°09'0 0.0
2018-Aug-08 11:28N 41°20' E 002°09'0 0.0
2018-Aug-08 10:59N 41°20' E 002°09'0 0.0
2018-Aug-08 10:29N 41°20' E 002°09'0 0.0
2018-Aug-08 09:59N 41°20' E 002°09'0 0.0
2018-Aug-08 09:30N 41°20' E 002°09'0 0.0
2018-Aug-08 09:00N 41°20' E 002°09'0 0.0
2018-Aug-08 08:30N 41°20' E 002°09'0 0.0
2018-Aug-08 07:58N 41°20' E 002°09'0 0.0
2018-Aug-08 07:28N 41°20' E 002°09'0 0.0
2018-Aug-08 06:58N 41°20' E 002°09'0 0.0
2018-Aug-08 06:29N 41°20' E 002°09'0 0.0
2018-Aug-08 05:56N 41°20' E 002°09'0 0.0
2018-Aug-08 05:29N 41°20' E 002°09'0 0.0
2018-Aug-08 05:00N 41°20' E 002°09'0 0.0
2018-Aug-08 04:30N 41°20' E 002°09'0 0.0
2018-Aug-08 03:57N 41°20' E 002°09'0 0.0
2018-Aug-08 03:30N 41°20' E 002°09'1 2.0
2018-Aug-08 03:00N 41°21' E 002°10'4 7.5
2018-Aug-08 02:30N 41°17' E 002°12'510.7
2018-Aug-08 02:01N 41°20' E 002°17'  
Track history (hours):
 
Tides and Currents Weather Stations Pressure Air Temp Water Temp Dewpoint Dewpoint Depression Visibility Wind Speed Wind Dir Waves Ship Positions

Neptune Okeanis

Last reported at 2018-Aug-16 20:24 UTC. Time now 2018-Aug-17 11:42 UTC.
Position N 37°32' E 023°54'.

Length 163 m; draft 5.9 m.

Type: Cargo ship. MMSI: 215912000.

Date/timePositionNaut miles runAvg speedWind from/ knotsBaromVisibWave heightAir tempDewpointWater temp
2018-Aug-16 20:24N 37°32' E 023°54'716.5
2018-Aug-16 20:00N 37°36' E 023°48'816.3
2018-Aug-16 19:31N 37°42' E 023°41'816.5
2018-Aug-16 19:00N 37°50' E 023°37'713.9
2018-Aug-16 18:30N 37°57' E 023°36'1 2.1
2018-Aug-16 17:59N 37°58' E 023°37'0 0.0
2018-Aug-16 17:30N 37°58' E 023°37'0 0.0
2018-Aug-16 17:00N 37°58' E 023°37'0 0.0
2018-Aug-16 16:30N 37°58' E 023°37'0 0.0
2018-Aug-16 16:00N 37°58' E 023°37'0 0.0
2018-Aug-16 15:25N 37°58' E 023°37'0 0.0
2018-Aug-16 14:58N 37°58' E 023°37'0 0.0
2018-Aug-16 14:29N 37°58' E 023°37'0 0.0
2018-Aug-16 13:59N 37°58' E 023°37'0 0.0
2018-Aug-16 13:29N 37°58' E 023°37'0 0.0
2018-Aug-16 12:57N 37°58' E 023°37'0 0.0
2018-Aug-16 12:30N 37°58' E 023°37'0 0.0
2018-Aug-16 12:00N 37°58' E 023°37'0 0.0
2018-Aug-16 11:30N 37°58' E 023°37'0 0.0
2018-Aug-16 10:58N 37°58' E 023°37'0 0.0
2018-Aug-16 10:28N 37°58' E 023°37'0 0.0
2018-Aug-16 09:59N 37°58' E 023°37'0 0.0
2018-Aug-16 09:29N 37°58' E 023°37'0 0.0
2018-Aug-16 08:58N 37°58' E 023°37'0 0.0
2018-Aug-16 08:29N 37°58' E 023°37'0 0.0
2018-Aug-16 07:59N 37°58' E 023°37'0 0.0
2018-Aug-16 07:29N 37°58' E 023°36'0 0.5
2018-Aug-16 07:00N 37°57' E 023°36'3 3.3
2018-Aug-16 06:06N 37°54' E 023°36'0 0.1
2018-Aug-16 06:00N 37°54' E 023°36'0 0.8
2018-Aug-16 05:30N 37°55' E 023°35'2 4.1
2018-Aug-16 05:01N 37°53' E 023°34'2 3.3
2018-Aug-16 04:28N 37°52' E 023°33'0 0.0
2018-Aug-16 03:59N 37°52' E 023°33'0 0.1
2018-Aug-16 03:29N 37°52' E 023°33'0 0.0
2018-Aug-16 02:59N 37°52' E 023°33'0 0.1
2018-Aug-16 02:30N 37°52' E 023°33'0 0.1
2018-Aug-16 02:00N 37°52' E 023°33'0 0.1
2018-Aug-16 01:30N 37°52' E 023°33'0 0.0
2018-Aug-16 00:58N 37°52' E 023°33'0 0.0
2018-Aug-16 00:28N 37°52' E 023°33'0 0.0
2018-Aug-15 23:58N 37°52' E 023°33'0 0.0
2018-Aug-15 23:29N 37°52' E 023°33'0 0.0
2018-Aug-15 22:59N 37°52' E 023°33'0 0.0
2018-Aug-15 22:29N 37°52' E 023°33'0 0.0
2018-Aug-15 21:57N 37°52' E 023°33'0 0.0
2018-Aug-15 21:30N 37°52' E 023°33'0 0.0
2018-Aug-15 20:58N 37°52' E 023°33'0 0.1
2018-Aug-15 20:28N 37°52' E 023°33'0 0.0
2018-Aug-15 19:58N 37°52' E 023°33'0 0.0
2018-Aug-15 19:26N 37°52' E 023°33'0 0.0
2018-Aug-15 18:59N 37°52' E 023°33'0 0.0
2018-Aug-15 18:29N 37°52' E 023°33'0 0.0
2018-Aug-15 17:59N 37°52' E 023°33'0 0.1
2018-Aug-15 17:30N 37°52' E 023°33'0 0.0
2018-Aug-15 17:00N 37°52' E 023°33'0 0.1
2018-Aug-15 16:30N 37°52' E 023°33'0 0.0
2018-Aug-15 15:58N 37°52' E 023°33'0 0.1
2018-Aug-15 15:28N 37°52' E 023°33'0 0.1
2018-Aug-15 14:59N 37°52' E 023°33'0 0.1
2018-Aug-15 14:29N 37°52' E 023°33'0 0.2
2018-Aug-15 14:00N 37°52' E 023°33'3 6.4
2018-Aug-15 13:30N 37°51' E 023°37'510.4
2018-Aug-15 13:00N 37°47' E 023°41'611.1
2018-Aug-15 12:30N 37°42' E 023°44'  
2018-Aug-10 10:57N 36°39' E 014°39'716.2
2018-Aug-10 10:30N 36°41' E 014°30'816.2
2018-Aug-10 10:00N 36°45' E 014°21'1016.5
2018-Aug-10 09:23N 36°49' E 014°09'616.4
2018-Aug-10 09:00N 36°52' E 014°02'816.2
2018-Aug-10 08:30N 36°55' E 013°53'59616.2
2018-Aug-08 19:40N 41°12' E 002°21'316.0
2018-Aug-08 19:30N 41°14' E 002°18'714.5
2018-Aug-08 19:01N 41°18' E 002°10'2 4.9
2018-Aug-08 18:31N 41°20' E 002°09'0 0.3
2018-Aug-08 18:00N 41°20' E 002°09'0 0.0
2018-Aug-08 17:30N 41°20' E 002°09'0 0.0
2018-Aug-08 16:49N 41°20' E 002°09'0 0.0
2018-Aug-08 16:28N 41°20' E 002°09'0 0.0
2018-Aug-08 15:58N 41°20' E 002°09'0 0.0
2018-Aug-08 15:29N 41°20' E 002°09'0 0.0
2018-Aug-08 14:59N 41°20' E 002°09'0 0.0
2018-Aug-08 14:29N 41°20' E 002°09'0 0.0
2018-Aug-08 14:00N 41°20' E 002°09'0 0.0
2018-Aug-08 13:30N 41°20' E 002°09'0 0.0
2018-Aug-08 13:00N 41°20' E 002°09'0 0.0
2018-Aug-08 12:28N 41°20' E 002°09'0 0.0
2018-Aug-08 11:58N 41°20' E 002°09'0 0.0
2018-Aug-08 11:28N 41°20' E 002°09'0 0.0
2018-Aug-08 10:59N 41°20' E 002°09'0 0.0
2018-Aug-08 10:29N 41°20' E 002°09'0 0.0
2018-Aug-08 09:59N 41°20' E 002°09'0 0.0
2018-Aug-08 09:30N 41°20' E 002°09'0 0.0
2018-Aug-08 09:00N 41°20' E 002°09'0 0.0
2018-Aug-08 08:30N 41°20' E 002°09'0 0.0
2018-Aug-08 07:58N 41°20' E 002°09'0 0.0
2018-Aug-08 07:28N 41°20' E 002°09'0 0.0
2018-Aug-08 06:58N 41°20' E 002°09'0 0.0
2018-Aug-08 06:29N 41°20' E 002°09'0 0.0
2018-Aug-08 05:56N 41°20' E 002°09'0 0.0
2018-Aug-08 05:29N 41°20' E 002°09'0 0.0
2018-Aug-08 05:00N 41°20' E 002°09'0 0.0
2018-Aug-08 04:30N 41°20' E 002°09'0 0.0
2018-Aug-08 03:57N 41°20' E 002°09'0 0.0
2018-Aug-08 03:30N 41°20' E 002°09'1 2.0
2018-Aug-08 03:00N 41°21' E 002°10'4 7.5
2018-Aug-08 02:30N 41°17' E 002°12'510.7
2018-Aug-08 02:01N 41°20' E 002°17'  

Dump ship's entire track history